Time;durP1;ratioP1;P1;durP2;ratioP2;P2;SDS_P1;SDS_P2;PMS_P1;PMS_P2;Temp;Humidity;BMP_temperature;BMP_pressure;BME280_temperature;BME280_humidity;BME280_pressure;Samples;Min_cycle;Max_cycle;Signal;HPM_P1;HPM_P2
2023/05/31 00:01:09;;;;;;;5.20;4.80;;;17.70;59.80;;;;;;4908245;29;20465;-82
2023/05/31 00:03:40;;;;;;;5.57;5.27;;;17.70;60.60;;;;;;4907172;29;20521;-81
2023/05/31 00:06:09;;;;;;;5.77;5.37;;;17.60;58.70;;;;;;4908080;29;20454;-83
2023/05/31 00:08:40;;;;;;;5.83;5.43;;;17.60;59.10;;;;;;4907868;29;20529;-82
2023/05/31 00:11:09;;;;;;;6.10;5.63;;;17.60;58.70;;;;;;4907282;29;21157;-82
2023/05/31 00:13:38;;;;;;;5.97;5.67;;;17.60;63.70;;;;;;4911361;29;20485;-82
2023/05/31 00:16:07;;;;;;;5.93;5.60;;;17.50;58.70;;;;;;4911366;29;20954;-81
2023/05/31 00:18:55;;;;;;;5.30;5.00;;;17.50;57.20;;;;;;4909276;29;20449;-82
2023/05/31 00:21:23;;;;;;;6.40;5.43;;;17.40;57.10;;;;;;4912109;29;20458;-82
2023/05/31 00:23:52;;;;;;;5.77;5.37;;;17.40;56.80;;;;;;4911097;29;20457;-82
2023/05/31 00:26:21;;;;;;;5.40;5.20;;;17.40;57.20;;;;;;4911515;29;20834;-82
2023/05/31 00:28:50;;;;;;;5.90;5.60;;;17.40;57.70;;;;;;4911534;29;20449;-82
2023/05/31 00:31:19;;;;;;;5.53;5.30;;;17.40;56.60;;;;;;4926244;29;20563;-82
2023/05/31 00:33:47;;;;;;;6.27;5.97;;;17.30;56.50;;;;;;4912265;29;20649;-81
2023/05/31 00:36:15;;;;;;;5.73;5.43;;;17.30;56.10;;;;;;4912610;29;20453;-82
2023/05/31 00:38:43;;;;;;;5.00;4.80;;;17.30;55.90;;;;;;4909069;29;20446;-82
2023/05/31 00:41:12;;;;;;;5.30;5.10;;;17.30;56.60;;;;;;4911689;29;20999;-83
2023/05/31 00:43:41;;;;;;;5.57;5.13;;;17.30;54.80;;;;;;4909481;29;21600;-82
2023/05/31 00:46:14;;;;;;;6.27;5.27;;;17.20;54.10;;;;;;4909602;29;20971;-82
2023/05/31 00:48:43;;;;;;;5.33;5.13;;;17.20;54.90;;;;;;4909583;29;20461;-82
2023/05/31 00:51:12;;;;;;;5.40;5.10;;;17.20;54.50;;;;;;4910592;29;20457;-82
2023/05/31 00:53:40;;;;;;;5.33;5.00;;;17.20;53.90;;;;;;4909762;29;20477;-82
2023/05/31 00:56:09;;;;;;;5.53;5.20;;;17.20;53.40;;;;;;4910048;29;20485;-82
2023/05/31 00:58:38;;;;;;;5.03;4.83;;;17.20;57.80;;;;;;4911800;29;20457;-82
2023/05/31 01:01:07;;;;;;;5.40;5.10;;;17.20;53.70;;;;;;4911089;29;20497;-81
2023/05/31 01:03:36;;;;;;;5.07;4.77;;;17.20;53.30;;;;;;4911799;29;20869;-82
2023/05/31 01:06:05;;;;;;;5.37;4.90;;;17.20;53.30;;;;;;4911559;29;20512;-82
2023/05/31 01:08:33;;;;;;;5.20;4.80;;;17.20;52.50;;;;;;4911691;29;20987;-82
2023/05/31 01:11:07;;;;;;;5.30;4.97;;;17.20;52.70;;;;;;4908457;29;20518;-82
2023/05/31 01:13:44;;;;;;;5.40;5.00;;;17.10;54.30;;;;;;4910463;29;20476;-82
2023/05/31 01:16:20;;;;;;;5.23;4.93;;;17.10;51.90;;;;;;4916058;29;20963;-81
2023/05/31 01:18:54;;;;;;;5.57;5.17;;;17.10;67.60;;;;;;4915384;29;20455;-82
2023/05/31 01:21:32;;;;;;;4.67;4.53;;;17.10;51.90;;;;;;4914229;29;20468;-82
2023/05/31 01:24:18;;;;;;;5.20;4.90;;;17.00;51.10;;;;;;4912861;29;20453;-82
2023/05/31 01:26:50;;;;;;;5.40;5.03;;;17.00;52.10;;;;;;4928598;29;20457;-82
2023/05/31 01:29:20;;;;;;;4.80;4.60;;;17.00;51.20;;;;;;4914809;29;20449;-82
2023/05/31 01:31:51;;;;;;;5.67;5.13;;;17.00;49.70;;;;;;4914630;29;20500;-81
2023/05/31 01:34:19;;;;;;;5.20;4.90;;;17.00;49.80;;;;;;4914164;29;20537;-82
2023/05/31 01:36:47;;;;;;;5.07;4.67;;;17.00;50.60;;;;;;4914917;29;20477;-82
2023/05/31 01:39:16;;;;;;;4.80;4.50;;;17.10;51.40;;;;;;4913784;29;20458;-82
2023/05/31 01:41:46;;;;;;;4.87;4.67;;;17.00;51.30;;;;;;4915060;29;20490;-82
2023/05/31 01:44:19;;;;;;;4.70;4.50;;;17.00;49.90;;;;;;4914120;29;20607;-82
2023/05/31 01:46:48;;;;;;;5.60;5.20;;;17.00;65.40;;;;;;4914708;29;20461;-81
2023/05/31 01:49:17;;;;;;;5.07;4.73;;;16.90;50.00;;;;;;4913612;29;20472;-82
2023/05/31 01:51:46;;;;;;;8.07;5.57;;;16.90;49.10;;;;;;4914056;29;20556;-82
2023/05/31 01:54:15;;;;;;;6.10;5.77;;;16.80;50.00;;;;;;4912266;29;20496;-82
2023/05/31 01:56:45;;;;;;;5.40;5.10;;;16.80;49.10;;;;;;4914697;29;20466;-81
2023/05/31 01:59:16;;;;;;;5.83;5.43;;;16.80;49.00;;;;;;4914159;29;20472;-82
2023/05/31 02:01:45;;;;;;;5.37;4.90;;;16.70;48.10;;;;;;4913241;29;20592;-83
2023/05/31 02:04:13;;;;;;;5.00;4.70;;;16.70;47.60;;;;;;4912439;29;20450;-81
2023/05/31 02:06:41;;;;;;;5.77;5.40;;;16.70;48.10;;;;;;4912955;29;20582;-82
2023/05/31 02:09:09;;;;;;;5.33;4.93;;;16.70;48.30;;;;;;4909241;29;20512;-82
2023/05/31 02:11:37;;;;;;;4.50;4.30;;;16.70;47.00;;;;;;4913489;29;20485;-82
2023/05/31 02:14:05;;;;;;;4.70;4.60;;;16.60;46.30;;;;;;4912779;29;20485;-82
2023/05/31 02:16:35;;;;;;;5.90;4.20;;;16.60;47.00;;;;;;4909527;29;20744;-82
2023/05/31 02:19:03;;;;;;;5.20;4.80;;;16.60;45.60;;;;;;4910880;29;20466;-82
2023/05/31 02:21:35;;;;;;;5.50;5.00;;;16.60;45.70;;;;;;4909453;29;21026;-82
2023/05/31 02:24:03;;;;;;;4.87;4.60;;;16.60;46.90;;;;;;4910492;29;20541;-83
2023/05/31 02:26:31;;;;;;;4.47;4.30;;;16.70;46.50;;;;;;4909084;29;20478;-82
2023/05/31 02:28:59;;;;;;;5.13;4.93;;;16.60;46.90;;;;;;4910785;29;21008;-82
2023/05/31 02:31:27;;;;;;;5.20;4.90;;;16.50;45.20;;;;;;4910079;29;20500;-82
2023/05/31 02:33:57;;;;;;;4.93;4.63;;;16.60;46.30;;;;;;4907810;29;20480;-82
2023/05/31 02:36:29;;;;;;;4.90;4.70;;;16.50;46.10;;;;;;4909983;29;20589;-82
2023/05/31 02:38:57;;;;;;;5.00;4.60;;;16.60;46.20;;;;;;4909274;29;20458;-81
2023/05/31 02:41:26;;;;;;;5.17;4.90;;;16.50;45.70;;;;;;4909065;29;20522;-82
2023/05/31 02:43:54;;;;;;;4.90;4.60;;;16.60;46.00;;;;;;4909139;29;20558;-81
2023/05/31 02:46:22;;;;;;;5.40;5.00;;;16.50;46.30;;;;;;4909636;29;20468;-81
2023/05/31 02:48:51;;;;;;;5.03;4.83;;;16.40;46.10;;;;;;4908147;29;20453;-81
2023/05/31 02:51:20;;;;;;;5.03;4.73;;;16.40;46.40;;;;;;4908658;29;20464;-82
2023/05/31 02:53:48;;;;;;;5.27;4.97;;;16.40;46.30;;;;;;4909377;29;20495;-82
2023/05/31 02:56:16;;;;;;;4.90;4.70;;;16.40;46.30;;;;;;4908669;29;20456;-82
2023/05/31 02:58:45;;;;;;;5.50;5.20;;;16.40;45.60;;;;;;4908753;29;21159;-81
2023/05/31 03:01:13;;;;;;;5.00;4.80;;;16.40;46.40;;;;;;4922541;29;20466;-82
2023/05/31 03:03:41;;;;;;;4.87;4.67;;;16.40;45.20;;;;;;4906286;29;20459;-82
2023/05/31 03:06:11;;;;;;;5.70;5.47;;;16.30;45.30;;;;;;4909750;29;20507;-82
2023/05/31 03:08:40;;;;;;;5.43;5.03;;;16.30;45.80;;;;;;4907409;29;20542;-82
2023/05/31 03:11:08;;;;;;;5.80;5.50;;;16.30;45.60;;;;;;4907984;29;20473;-81
2023/05/31 03:13:36;;;;;;;5.00;4.77;;;16.30;46.10;;;;;;4909010;29;20496;-82
2023/05/31 03:16:05;;;;;;;5.23;5.03;;;16.30;45.50;;;;;;4910854;29;21011;-82
2023/05/31 03:18:33;;;;;;;6.20;5.77;;;16.20;45.50;;;;;;4912216;29;21010;-82
2023/05/31 03:21:01;;;;;;;5.23;4.70;;;16.20;46.40;;;;;;4910831;29;20462;-81
2023/05/31 03:23:29;;;;;;;5.40;5.20;;;16.20;45.80;;;;;;4909769;29;20483;-82
2023/05/31 03:25:59;;;;;;;5.37;4.90;;;16.30;46.30;;;;;;4911115;29;21380;-82
2023/05/31 03:28:27;;;;;;;5.27;4.80;;;16.20;45.40;;;;;;4910522;29;20456;-83
2023/05/31 03:30:55;;;;;;;5.30;5.10;;;16.20;45.70;;;;;;4909189;29;20466;-82
2023/05/31 03:33:23;;;;;;;5.20;4.90;;;16.20;45.90;;;;;;4910994;29;20495;-82
2023/05/31 03:35:51;;;;;;;5.17;4.97;;;16.20;44.40;;;;;;4909149;29;20532;-83
2023/05/31 03:38:20;;;;;;;4.80;4.60;;;16.20;45.80;;;;;;4910859;29;20486;-81
2023/05/31 03:40:48;;;;;;;4.90;4.70;;;16.10;44.80;;;;;;4907777;29;20558;-81
2023/05/31 03:43:17;;;;;;;5.43;5.17;;;16.10;46.00;;;;;;4907727;29;20630;-82
2023/05/31 03:45:45;;;;;;;5.77;5.33;;;16.10;59.60;;;;;;4905632;29;20518;-81
2023/05/31 03:48:14;;;;;;;6.00;5.50;;;16.10;44.40;;;;;;4906847;29;20473;-82
2023/05/31 03:50:42;;;;;;;5.80;5.40;;;16.10;44.40;;;;;;4905640;29;20466;-82
2023/05/31 03:53:10;;;;;;;5.97;5.53;;;16.10;45.40;;;;;;4906642;29;21094;-82
2023/05/31 03:55:38;;;;;;;5.33;5.03;;;16.00;44.90;;;;;;4905222;29;20523;-82
2023/05/31 03:58:06;;;;;;;5.47;5.17;;;16.00;45.30;;;;;;4907040;29;20467;-82
2023/05/31 04:00:36;;;;;;;5.63;5.33;;;16.10;45.80;;;;;;4902063;29;21071;-82
2023/05/31 04:03:04;;;;;;;5.77;5.37;;;16.00;45.60;;;;;;4908166;29;20538;-82
2023/05/31 04:05:32;;;;;;;6.10;5.80;;;16.00;46.10;;;;;;4908348;29;20986;-82
2023/05/31 04:08:01;;;;;;;5.60;5.30;;;16.00;46.50;;;;;;4907621;29;20454;-83
2023/05/31 04:10:30;;;;;;;5.93;5.63;;;16.00;47.40;;;;;;4898299;29;20463;-82
2023/05/31 04:12:59;;;;;;;5.93;5.63;;;16.00;47.50;;;;;;4907106;29;20569;-82
2023/05/31 04:15:28;;;;;;;5.73;5.47;;;16.00;47.60;;;;;;4906279;29;20543;-82
2023/05/31 04:17:57;;;;;;;5.40;5.30;;;15.90;47.10;;;;;;4906052;29;20593;-82
2023/05/31 04:20:25;;;;;;;6.07;5.73;;;16.00;48.20;;;;;;4906653;29;20555;-82
2023/05/31 04:22:54;;;;;;;6.70;6.30;;;15.90;47.60;;;;;;4907902;29;20897;-82
2023/05/31 04:25:22;;;;;;;6.37;5.97;;;16.00;49.90;;;;;;4907411;29;20474;-82
2023/05/31 04:27:51;;;;;;;6.70;6.40;;;16.00;49.50;;;;;;4904008;29;20450;-82
2023/05/31 04:30:20;;;;;;;6.13;5.90;;;16.10;48.40;;;;;;4905762;29;20469;-82
2023/05/31 04:32:51;;;;;;;6.87;6.37;;;16.10;50.00;;;;;;4906643;29;21385;-82
2023/05/31 04:35:22;;;;;;;6.63;6.13;;;16.00;49.80;;;;;;4906247;29;20475;-81
2023/05/31 04:37:52;;;;;;;6.67;6.17;;;16.00;55.90;;;;;;4905078;29;20551;-82
2023/05/31 04:40:20;;;;;;;5.90;5.50;;;16.00;51.00;;;;;;4905549;29;20875;-82
2023/05/31 04:42:48;;;;;;;6.30;5.90;;;16.00;50.70;;;;;;4907214;29;20482;-82
2023/05/31 04:45:17;;;;;;;5.87;5.67;;;16.10;51.20;;;;;;4907881;29;20860;-82
2023/05/31 04:47:46;;;;;;;6.20;6.00;;;16.10;51.20;;;;;;4905652;29;20466;-82
2023/05/31 04:50:14;;;;;;;6.40;6.20;;;16.10;52.10;;;;;;4905303;29;20466;-82
2023/05/31 04:52:45;;;;;;;5.97;5.70;;;16.10;51.90;;;;;;4906286;29;20491;-81
2023/05/31 04:55:13;;;;;;;6.10;5.80;;;16.10;52.90;;;;;;4907302;29;20475;-82
2023/05/31 04:57:41;;;;;;;6.63;6.43;;;16.10;53.10;;;;;;4908031;29;20470;-81
2023/05/31 05:00:15;;;;;;;6.77;6.47;;;16.10;53.50;;;;;;4909688;29;20471;-82
2023/05/31 05:02:43;;;;;;;6.93;6.43;;;16.20;54.30;;;;;;4909810;29;20501;-81
2023/05/31 05:05:11;;;;;;;7.43;7.03;;;16.20;54.70;;;;;;4910295;29;20455;-81
2023/05/31 05:07:39;;;;;;;6.57;6.37;;;16.20;55.20;;;;;;4910941;29;20458;-83
2023/05/31 05:10:10;;;;;;;9.03;8.33;;;16.20;56.30;;;;;;4910703;29;20468;-82
2023/05/31 05:12:38;;;;;;;10.53;9.60;;;16.20;56.70;;;;;;4911431;29;20486;-81
2023/05/31 05:15:07;;;;;;;7.13;6.67;;;16.30;57.40;;;;;;4910262;29;20547;-81
2023/05/31 05:17:35;;;;;;;6.93;6.60;;;16.30;56.60;;;;;;4909026;29;20455;-81
2023/05/31 05:20:05;;;;;;;6.93;6.63;;;16.40;57.10;;;;;;4909855;29;20900;-82
2023/05/31 05:22:33;;;;;;;7.10;6.77;;;16.40;58.40;;;;;;4909752;29;21030;-82
2023/05/31 05:25:01;;;;;;;6.80;6.40;;;16.40;59.00;;;;;;4910883;29;20455;-82
2023/05/31 05:27:30;;;;;;;7.30;6.80;;;16.50;60.10;;;;;;4910561;29;20457;-81
2023/05/31 05:29:59;;;;;;;6.50;6.30;;;16.50;61.10;;;;;;4912281;29;20478;-82
2023/05/31 05:32:27;;;;;;;7.00;6.60;;;16.50;61.00;;;;;;4909722;29;20582;-82
2023/05/31 05:34:55;;;;;;;7.17;6.87;;;16.50;62.50;;;;;;4908809;29;21033;-82
2023/05/31 05:37:23;;;;;;;7.03;6.70;;;16.60;63.70;;;;;;4910192;29;21037;-82
2023/05/31 05:39:51;;;;;;;6.77;6.47;;;16.60;62.80;;;;;;4909066;29;20884;-82
2023/05/31 05:42:19;;;;;;;8.00;7.60;;;16.70;65.20;;;;;;4908079;29;20544;-82
2023/05/31 05:44:49;;;;;;;8.17;7.57;;;16.70;66.60;;;;;;4910414;29;20461;-81
2023/05/31 05:47:17;;;;;;;6.93;6.63;;;16.80;67.50;;;;;;4925088;29;20501;-82
2023/05/31 05:49:45;;;;;;;7.20;6.90;;;16.80;64.80;;;;;;4909115;29;21262;-82
2023/05/31 05:52:13;;;;;;;6.80;6.50;;;16.90;66.70;;;;;;4908806;29;20481;-82
2023/05/31 05:54:41;;;;;;;7.60;7.13;;;17.00;69.70;;;;;;4909621;29;20463;-82
2023/05/31 05:57:09;;;;;;;6.90;6.60;;;17.00;68.30;;;;;;4906713;29;20556;-82
2023/05/31 05:59:37;;;;;;;7.10;6.83;;;17.00;69.80;;;;;;4910020;29;20859;-82
2023/05/31 06:02:07;;;;;;;7.17;6.77;;;17.00;68.20;;;;;;4910177;29;21108;-81
2023/05/31 06:04:35;;;;;;;6.30;6.10;;;17.10;70.00;;;;;;4903743;29;20472;-82
2023/05/31 06:07:03;;;;;;;7.07;6.77;;;17.10;70.80;;;;;;4905960;29;20469;-82
2023/05/31 06:09:31;;;;;;;7.37;7.07;;;17.20;71.00;;;;;;4908488;29;21006;-82
2023/05/31 06:12:00;;;;;;;8.80;6.90;;;17.30;71.80;;;;;;4908499;29;20565;-82
2023/05/31 06:14:28;;;;;;;7.13;6.63;;;17.30;73.50;;;;;;4910420;29;20904;-82
2023/05/31 06:16:56;;;;;;;7.63;7.23;;;17.40;74.30;;;;;;4909764;29;20484;-80
2023/05/31 06:19:25;;;;;;;7.10;6.80;;;17.40;75.30;;;;;;4911022;29;20552;-81
2023/05/31 06:21:57;;;;;;;7.73;7.40;;;17.50;75.00;;;;;;4910241;29;20484;-82
2023/05/31 06:24:25;;;;;;;7.80;7.43;;;17.50;77.30;;;;;;4910650;29;20465;-81
2023/05/31 06:26:54;;;;;;;8.20;7.60;;;17.60;77.80;;;;;;4907896;29;20472;-82
2023/05/31 06:29:22;;;;;;;7.87;7.47;;;17.60;76.10;;;;;;4909160;29;20469;-81
2023/05/31 06:31:50;;;;;;;7.87;7.50;;;17.70;77.70;;;;;;4910486;29;20504;-82
2023/05/31 06:34:18;;;;;;;8.33;8.03;;;17.80;79.40;;;;;;4908717;29;20548;-82
2023/05/31 06:36:48;;;;;;;8.33;8.00;;;17.90;80.10;;;;;;4909266;29;20539;-81
2023/05/31 06:39:16;;;;;;;8.10;7.60;;;18.00;80.90;;;;;;4909810;29;20464;-83
2023/05/31 06:41:44;;;;;;;7.70;7.40;;;18.00;81.70;;;;;;4908721;29;20798;-82
2023/05/31 06:44:12;;;;;;;7.63;7.33;;;18.10;84.70;;;;;;4908929;29;20943;-81
2023/05/31 06:46:40;;;;;;;7.33;7.13;;;18.20;83.60;;;;;;4910185;29;20486;-81
2023/05/31 06:49:08;;;;;;;8.63;7.10;;;18.30;82.20;;;;;;4909171;29;21347;-81
2023/05/31 06:51:40;;;;;;;7.70;7.30;;;18.30;81.00;;;;;;4908792;29;21176;-83
2023/05/31 06:54:09;;;;;;;8.00;7.50;;;18.40;83.80;;;;;;4908407;29;20473;-82
2023/05/31 06:56:37;;;;;;;8.17;7.87;;;18.40;95.30;;;;;;4908799;29;20990;-80
2023/05/31 06:59:05;;;;;;;8.67;7.80;;;18.40;86.80;;;;;;4908920;29;20468;-81
2023/05/31 07:01:33;;;;;;;7.83;7.57;;;18.50;87.90;;;;;;4910020;29;21035;-82
2023/05/31 07:04:02;;;;;;;8.50;7.93;;;18.60;89.40;;;;;;4908008;29;20458;-82
2023/05/31 07:06:31;;;;;;;7.80;7.50;;;18.60;91.50;;;;;;4909541;29;20458;-82
2023/05/31 07:08:59;;;;;;;8.13;7.73;;;18.60;91.60;;;;;;4909418;29;20457;-81
2023/05/31 07:11:29;;;;;;;8.20;7.70;;;18.70;91.40;;;;;;4909522;29;20470;-82
2023/05/31 07:13:59;;;;;;;8.40;8.00;;;18.70;92.50;;;;;;4910035;29;20450;-82
2023/05/31 07:16:27;;;;;;;8.03;7.60;;;18.80;93.30;;;;;;4907357;29;20492;-82
2023/05/31 07:18:56;;;;;;;8.17;7.77;;;19.00;92.80;;;;;;4908841;29;20473;-81
2023/05/31 07:21:24;;;;;;;7.83;7.50;;;18.90;92.10;;;;;;4909278;29;20465;-81
2023/05/31 07:23:53;;;;;;;9.03;8.50;;;18.90;92.70;;;;;;4908741;29;20468;-82
2023/05/31 07:26:21;;;;;;;9.40;8.70;;;19.00;93.30;;;;;;4908709;29;20458;-82
2023/05/31 07:28:52;;;;;;;9.13;8.80;;;19.10;93.60;;;;;;4909963;29;20473;-82
2023/05/31 07:31:21;;;;;;;9.67;9.13;;;19.10;93.90;;;;;;4909740;29;20513;-82
2023/05/31 07:33:49;;;;;;;8.13;7.83;;;19.10;94.20;;;;;;4923104;29;20576;-82
2023/05/31 07:36:18;;;;;;;9.17;8.63;;;19.10;94.00;;;;;;4908407;29;20478;-82
2023/05/31 07:38:47;;;;;;;9.70;9.20;;;19.20;93.80;;;;;;4907032;29;20617;-82
2023/05/31 07:41:15;;;;;;;9.10;8.50;;;19.30;99.90;;;;;;4907163;29;20458;-82
2023/05/31 07:43:45;;;;;;;9.33;8.70;;;19.30;94.90;;;;;;4900778;29;20472;-82
2023/05/31 07:46:15;;;;;;;9.27;8.77;;;19.30;92.90;;;;;;4907693;29;21024;-82
2023/05/31 07:48:43;;;;;;;8.80;8.40;;;19.30;94.90;;;;;;4906946;29;20469;-82
2023/05/31 07:51:12;;;;;;;8.57;8.20;;;19.40;96.30;;;;;;4904782;29;20546;-82
2023/05/31 07:53:40;;;;;;;9.27;8.87;;;19.40;95.60;;;;;;4907807;29;20520;-83
2023/05/31 07:56:09;;;;;;;9.33;8.80;;;19.50;95.40;;;;;;4907799;29;20582;-82
2023/05/31 07:58:37;;;;;;;9.70;8.87;;;19.50;96.30;;;;;;4907648;29;20998;-81
2023/05/31 08:01:05;;;;;;;9.63;8.93;;;19.60;96.20;;;;;;4906802;29;20462;-82
2023/05/31 08:03:35;;;;;;;9.53;8.93;;;19.60;96.40;;;;;;4906714;29;20493;-82
2023/05/31 08:06:04;;;;;;;9.20;8.87;;;19.70;97.90;;;;;;4906447;29;20449;-82
2023/05/31 08:08:33;;;;;;;9.70;9.00;;;19.70;96.90;;;;;;4908006;29;20958;-83
2023/05/31 08:11:02;;;;;;;9.93;9.53;;;19.70;97.90;;;;;;4907944;29;21022;-82
2023/05/31 08:13:31;;;;;;;9.80;9.40;;;19.90;98.40;;;;;;4907620;29;20473;-82
2023/05/31 08:15:59;;;;;;;10.40;9.73;;;19.90;99.00;;;;;;4906909;29;20458;-82
2023/05/31 08:18:27;;;;;;;9.80;9.40;;;19.90;99.90;;;;;;4906054;29;20517;-81
2023/05/31 08:20:57;;;;;;;9.90;9.40;;;20.00;99.90;;;;;;4906787;29;20486;-82
2023/05/31 08:23:25;;;;;;;9.63;9.23;;;20.10;99.90;;;;;;4907127;29;20493;-81
2023/05/31 08:25:53;;;;;;;9.87;9.37;;;20.10;99.70;;;;;;4908698;29;20536;-82
2023/05/31 08:28:21;;;;;;;10.53;9.60;;;20.10;99.90;;;;;;4907402;29;20995;-82
2023/05/31 08:30:49;;;;;;;9.80;9.27;;;20.10;99.50;;;;;;4904851;29;20450;-82
2023/05/31 08:33:18;;;;;;;10.53;9.63;;;20.20;99.90;;;;;;4907383;29;20706;-81
2023/05/31 08:35:47;;;;;;;9.90;9.40;;;20.20;99.30;;;;;;4910894;29;20471;-82
2023/05/31 08:38:16;;;;;;;9.70;9.30;;;20.30;99.90;;;;;;4923148;29;20481;-81
2023/05/31 08:40:44;;;;;;;10.00;9.40;;;20.30;99.70;;;;;;4910363;29;20514;-80
2023/05/31 08:43:20;;;;;;;9.43;9.13;;;20.30;99.90;;;;;;4910302;29;20505;-81
2023/05/31 08:45:50;;;;;;;10.10;9.70;;;20.40;99.90;;;;;;4909552;29;20469;-81
2023/05/31 08:48:25;;;;;;;10.43;10.00;;;20.40;99.90;;;;;;4924762;29;20479;-82
2023/05/31 08:50:54;;;;;;;10.37;9.87;;;20.40;99.90;;;;;;4909430;29;20472;-82
2023/05/31 08:53:25;;;;;;;11.10;10.70;;;20.50;99.90;;;;;;4909804;29;20570;-82
2023/05/31 08:55:54;;;;;;;11.43;10.87;;;20.50;99.90;;;;;;4911458;29;20548;-81
2023/05/31 08:58:23;;;;;;;10.27;9.77;;;20.60;99.90;;;;;;4910864;29;20485;-82
2023/05/31 09:00:52;;;;;;;10.83;10.00;;;20.70;99.90;;;;;;4900513;29;20532;-82
2023/05/31 09:03:21;;;;;;;10.97;10.37;;;20.70;99.90;;;;;;4923216;29;21192;-81
2023/05/31 09:05:56;;;;;;;11.57;10.67;;;20.80;99.90;;;;;;4909383;29;20485;-82
2023/05/31 09:08:26;;;;;;;11.07;10.47;;;20.70;99.90;;;;;;4908387;29;20480;-81
2023/05/31 09:10:54;;;;;;;10.60;10.17;;;20.80;99.90;;;;;;4909071;29;20453;-81
2023/05/31 09:13:23;;;;;;;11.07;10.40;;;20.90;99.90;;;;;;4901197;29;20572;-81
2023/05/31 09:15:53;;;;;;;11.00;10.43;;;20.90;99.90;;;;;;4900046;29;20477;-81
2023/05/31 09:18:23;;;;;;;10.80;10.20;;;21.00;99.90;;;;;;4910353;29;20485;-81
2023/05/31 09:20:55;;;;;;;11.23;10.10;;;20.90;99.90;;;;;;4909367;29;20482;-82
2023/05/31 09:23:25;;;;;;;9.83;9.37;;;20.90;99.90;;;;;;4909795;29;20482;-82
2023/05/31 09:25:54;;;;;;;10.43;10.03;;;20.90;99.90;;;;;;4908515;29;20956;-82
2023/05/31 09:28:23;;;;;;;11.10;10.50;;;21.00;99.90;;;;;;4910262;29;20779;-82
2023/05/31 09:31:03;;;;;;;10.33;9.90;;;21.10;99.90;;;;;;4908311;29;20811;-82
2023/05/31 09:33:40;;;;;;;10.53;10.03;;;21.10;99.90;;;;;;4909455;29;20477;-82
2023/05/31 09:36:09;;;;;;;10.53;10.13;;;21.20;99.90;;;;;;4909968;29;20487;-81
2023/05/31 09:38:39;;;;;;;10.53;10.13;;;21.20;99.90;;;;;;4908933;29;21024;-81
2023/05/31 09:41:14;;;;;;;10.90;10.40;;;21.30;99.90;;;;;;4908854;29;20462;-82
2023/05/31 09:43:44;;;;;;;10.67;10.10;;;21.30;99.90;;;;;;4909150;29;20545;-81
2023/05/31 09:46:14;;;;;;;11.17;10.77;;;21.30;99.90;;;;;;4908668;29;20958;-81
2023/05/31 09:48:42;;;;;;;10.50;10.20;;;21.40;99.90;;;;;;4907708;29;20461;-82
2023/05/31 09:51:11;;;;;;;11.77;11.17;;;21.40;99.90;;;;;;4903322;29;20465;-81
2023/05/31 09:53:43;;;;;;;11.33;10.50;;;21.50;99.90;;;;;;4908251;29;20995;-82
2023/05/31 09:56:12;;;;;;;11.57;10.87;;;21.50;99.90;;;;;;4909009;29;21007;-82
2023/05/31 09:58:40;;;;;;;12.13;11.40;;;21.50;99.90;;;;;;4908352;29;20492;-83
2023/05/31 10:01:09;;;;;;;10.67;10.00;;;21.50;99.90;;;;;;4908735;29;21383;-82
2023/05/31 10:03:39;;;;;;;11.10;10.60;;;21.60;99.90;;;;;;4908635;29;20476;-82
2023/05/31 10:06:08;;;;;;;10.43;10.03;;;21.60;99.90;;;;;;4907863;29;20472;-82
2023/05/31 10:08:38;;;;;;;10.97;10.47;;;21.60;99.90;;;;;;4901968;29;20897;-81
2023/05/31 10:11:12;;;;;;;10.43;10.13;;;21.70;99.90;;;;;;4908592;29;20465;-81
2023/05/31 10:13:43;;;;;;;10.60;10.20;;;21.80;99.90;;;;;;4910092;29;20492;-81
2023/05/31 10:16:12;;;;;;;10.13;9.73;;;21.80;99.90;;;;;;4908474;29;20994;-82
2023/05/31 10:18:45;;;;;;;10.30;9.90;;;21.80;99.90;;;;;;4908783;29;20485;-81
2023/05/31 10:21:22;;;;;;;10.40;10.03;;;21.80;99.90;;;;;;4908662;29;20469;-82
2023/05/31 10:23:57;;;;;;;10.63;10.10;;;21.90;99.90;;;;;;4909831;29;20446;-81
2023/05/31 10:26:36;;;;;;;10.27;9.90;;;21.90;99.90;;;;;;4924279;29;20457;-82
2023/05/31 10:29:11;;;;;;;11.07;10.50;;;21.90;99.90;;;;;;4908872;29;20453;-82
2023/05/31 10:31:51;;;;;;;10.90;10.50;;;22.00;99.90;;;;;;4908974;29;20493;-81
2023/05/31 10:34:22;;;;;;;10.80;10.20;;;22.00;99.90;;;;;;4904049;29;20540;-82
2023/05/31 10:36:51;;;;;;;10.47;10.07;;;22.00;99.90;;;;;;4907548;29;20506;-82
2023/05/31 10:39:30;;;;;;;10.70;10.10;;;22.00;99.90;;;;;;4907409;29;20493;-82
2023/05/31 10:42:12;;;;;;;10.93;10.53;;;22.10;99.90;;;;;;4907966;29;20568;-82
2023/05/31 10:44:51;;;;;;;10.50;10.10;;;22.10;99.90;;;;;;4906825;29;21276;-83
2023/05/31 10:47:25;;;;;;;10.47;10.07;;;22.20;99.90;;;;;;4906350;29;20539;-82
2023/05/31 10:49:56;;;;;;;10.73;10.23;;;22.20;99.90;;;;;;4903530;29;20969;-82
2023/05/31 10:52:29;;;;;;;10.53;9.80;;;22.30;99.90;;;;;;4907484;29;20481;-79
2023/05/31 10:55:19;;;;;;;9.90;9.50;;;22.30;99.90;;;;;;4906042;29;20469;-82
2023/05/31 10:57:54;;;;;;;11.03;9.93;;;22.30;99.90;;;;;;4908209;29;20485;-82
2023/05/31 11:00:23;;;;;;;10.23;9.60;;;22.30;99.90;;;;;;4905891;29;20468;-82
2023/05/31 11:02:54;;;;;;;9.83;9.37;;;22.30;99.90;;;;;;4906611;29;20561;-81
2023/05/31 11:05:24;;;;;;;9.70;9.20;;;22.20;99.90;;;;;;4907573;29;20461;-81
2023/05/31 11:07:54;;;;;;;9.93;9.53;;;22.30;99.90;;;;;;4905899;29;20454;-82
2023/05/31 11:10:27;;;;;;;10.40;9.90;;;22.40;99.90;;;;;;4905553;29;20489;-82
2023/05/31 11:13:03;;;;;;;10.13;9.83;;;22.40;99.90;;;;;;4907580;29;20501;-82
2023/05/31 11:15:41;;;;;;;11.20;10.70;;;22.50;99.90;;;;;;4908792;29;20472;-82
2023/05/31 11:18:10;;;;;;;10.50;10.10;;;22.50;99.90;;;;;;4904488;29;20693;-82
2023/05/31 11:20:39;;;;;;;10.67;10.07;;;22.50;99.90;;;;;;4899201;29;20481;-82
2023/05/31 11:23:34;;;;;;;10.70;10.30;;;22.50;99.90;;;;;;4909119;29;20556;-81
2023/05/31 11:26:10;;;;;;;10.90;10.17;;;22.60;99.90;;;;;;4908502;29;20449;-82
2023/05/31 11:29:01;;;;;;;11.60;10.63;;;22.50;99.90;;;;;;4905158;29;20544;-82
2023/05/31 11:31:59;;;;;;;10.60;10.10;;;22.60;99.90;;;;;;4907859;29;20704;-81
2023/05/31 11:34:29;;;;;;;10.30;10.00;;;22.60;99.90;;;;;;4908512;29;20473;-82
2023/05/31 11:36:59;;;;;;;11.40;10.90;;;22.60;99.90;;;;;;4909332;29;20508;-81
2023/05/31 11:39:28;;;;;;;10.70;10.30;;;22.70;99.90;;;;;;4906943;29;20533;-82
2023/05/31 11:41:57;;;;;;;11.00;10.43;;;22.70;99.90;;;;;;4909082;29;20798;-82
2023/05/31 11:44:30;;;;;;;10.77;10.37;;;22.80;99.90;;;;;;4908344;29;20478;-81
2023/05/31 11:47:04;;;;;;;10.30;9.90;;;22.80;99.90;;;;;;4908122;29;21461;-83
2023/05/31 11:49:33;;;;;;;10.50;10.10;;;22.80;99.90;;;;;;4907268;29;21016;-81
2023/05/31 11:52:02;;;;;;;9.97;9.67;;;22.80;99.90;;;;;;4905875;29;20482;-81
2023/05/31 11:54:32;;;;;;;10.40;9.93;;;22.90;99.90;;;;;;4908890;29;21336;-82
2023/05/31 11:57:03;;;;;;;9.63;9.23;;;22.90;99.90;;;;;;4904717;29;21059;-82
2023/05/31 11:59:33;;;;;;;10.27;9.63;;;22.90;99.90;;;;;;4907038;29;20490;-82
2023/05/31 12:02:07;;;;;;;10.27;9.77;;;22.90;99.90;;;;;;4906292;29;20566;-81
2023/05/31 12:04:36;;;;;;;10.37;9.97;;;22.90;99.90;;;;;;4905711;29;21081;-82
2023/05/31 12:07:06;;;;;;;10.17;9.60;;;23.00;99.90;;;;;;4905040;29;20671;-82
2023/05/31 12:09:35;;;;;;;10.97;10.37;;;23.00;99.90;;;;;;4909720;29;20468;-82
2023/05/31 12:12:05;;;;;;;10.87;10.47;;;23.00;99.90;;;;;;4908983;29;21047;-82
2023/05/31 12:14:35;;;;;;;11.00;10.57;;;23.00;99.90;;;;;;4910232;29;20457;-83
2023/05/31 12:17:05;;;;;;;10.60;10.20;;;23.00;99.90;;;;;;4912223;29;20468;-82
2023/05/31 12:19:36;;;;;;;10.80;10.40;;;22.90;99.90;;;;;;4908032;29;20486;-81
2023/05/31 12:22:05;;;;;;;10.63;10.23;;;23.00;99.90;;;;;;4911680;29;20478;-82
2023/05/31 12:24:33;;;;;;;10.40;10.10;;;23.10;99.90;;;;;;4911179;29;20500;-82
2023/05/31 12:27:05;;;;;;;10.17;9.87;;;23.10;99.90;;;;;;4910756;29;20553;-82
2023/05/31 12:29:34;;;;;;;11.00;10.40;;;23.10;99.90;;;;;;4908632;29;20773;-82
2023/05/31 12:32:05;;;;;;;11.93;11.13;;;23.20;99.90;;;;;;4911421;29;20478;-82
2023/05/31 12:34:35;;;;;;;10.00;9.60;;;23.20;99.90;;;;;;4909859;29;20462;-81
2023/05/31 12:37:06;;;;;;;11.90;11.00;;;23.20;99.90;;;;;;4911177;29;20458;-82
2023/05/31 12:39:34;;;;;;;10.73;10.33;;;23.20;99.90;;;;;;4905634;29;20489;-82
2023/05/31 12:42:04;;;;;;;10.67;9.77;;;23.20;99.90;;;;;;4912010;29;20474;-81
2023/05/31 12:44:32;;;;;;;10.57;10.07;;;23.20;99.90;;;;;;4911471;29;20477;-82
2023/05/31 12:47:04;;;;;;;9.97;9.47;;;23.20;99.90;;;;;;4912423;29;20531;-82
2023/05/31 12:49:34;;;;;;;9.53;9.23;;;23.20;99.90;;;;;;4910935;29;20487;-82
2023/05/31 12:52:06;;;;;;;9.80;9.50;;;23.20;99.90;;;;;;4910311;29;20486;-82
2023/05/31 12:54:36;;;;;;;10.10;9.50;;;23.30;99.90;;;;;;4910454;29;20457;-82